Hovedside
METAR-TAF:

METAR-TAF

Lufthavner :

Caldwell Industrial Airport

Caldwell, Idaho, USA

breddegrad: 43-38N, lengdegrad: 116-38W, høyde over havet: 740 m

Gjeldene værobservasjon

Denne rapporten ble laget for 50 minutter siden, klokken 15:56 UTC
Flau vind
Temperatur 10°C
Luftfuktighet 53%
Trykk 1018 hPa
Sikt: 16.1 km
Skyfri himmel

METAR: KEUL 091556Z AUTO 00000KT 10SM CLR 10/01 A3006 RMK AO2 SLP177 T01000011

Tid: 10:46 (16:46 UTC)

Varsel

Denne rapporten ble laget for 5 timer og 26 minutter siden, klokken 11:20 UTC
Varsel gyldig fra 09. klokken 12 UTC til 10. klokken 12 UTC
Vind 10 kt fra Vest
Sikt: 10 km
Skyfri himmel
Fra 09. klokken 1500 UTC
Vind 4 kt fra skiftende retning
Sikt: 10 km
Skyfri himmel
Fra 09. klokken 2000 UTC
Vind 8 kt fra Nordvest
Sikt: 10 km
Skyfri himmel
Fra 10. klokken 0600 UTC
Vind 5 kt fra Vest
Sikt: 10 km
Skyfri himmel

TAF: KEUL 091120Z 0912/1012 27010KT P6SM SKC FM091500 VRB04KT P6SM SKC FM092000 31008KT P6SM SKC FM100600 27005KT P6SM SKC

Værobservasjoner og værvarsel for over 4000 flyplasser (METAR- og TAF-rapporter).

Tilgjengelige stasjoner er representert av de røde og gule prikkene på kartet.

Hold musepekeren over prikken for å se navnet på stasjonen.

Klikk så for å se værobservasjoner og -varsler.

For å forandre kartet kan du klikke på den grønne knappen med svart kryss for å zoome inn, på den grønne knappen med strek for å zoome ut, eller på de grønne pilene for å se tilstøtende kart.


METAR-TAF: